Time;durP1;ratioP1;P1;durP2;ratioP2;P2;SDS_P1;SDS_P2;PMS_P1;PMS_P2;Temp;Humidity;BMP_temperature;BMP_pressure;BME280_temperature;BME280_humidity;BME280_pressure;Samples;Min_cycle;Max_cycle;Signal;HPM_P1;HPM_P2
2023/04/13 00:00:22;;;;;;;4.35;3.05;;;6.00;99.90;;;;;;6364414;22;20120;-67
2023/04/13 00:02:54;;;;;;;4.85;2.92;;;6.30;99.90;;;;;;6337060;22;20339;-67
2023/04/13 00:05:21;;;;;;;4.57;3.25;;;6.40;99.90;;;;;;6337021;22;20032;-67
2023/04/13 00:07:49;;;;;;;4.18;3.08;;;6.50;99.90;;;;;;6364900;22;20102;-67
2023/04/13 00:10:17;;;;;;;4.55;2.80;;;6.50;99.90;;;;;;6365331;22;20033;-68
2023/04/13 00:12:46;;;;;;;3.83;3.00;;;6.60;99.90;;;;;;6336337;22;20026;-68
2023/04/13 00:15:16;;;;;;;3.00;2.65;;;6.70;99.90;;;;;;6364187;22;20379;-68
2023/04/13 00:17:42;;;;;;;6.10;3.50;;;6.70;99.90;;;;;;6364488;22;20383;-68
2023/04/13 00:20:12;;;;;;;4.72;3.15;;;6.80;99.90;;;;;;6364090;22;20022;-68
2023/04/13 00:22:39;;;;;;;5.07;3.25;;;6.90;99.90;;;;;;6364184;22;20022;-67
2023/04/13 00:25:06;;;;;;;5.07;2.60;;;7.00;99.90;;;;;;6363991;22;20011;-66
2023/04/13 00:27:31;;;;;;;3.92;2.63;;;7.00;99.90;;;;;;6335836;22;20148;-66
2023/04/13 00:29:57;;;;;;;2.80;2.30;;;7.10;99.90;;;;;;6335247;22;20014;-66
2023/04/13 00:32:24;;;;;;;4.32;2.38;;;7.20;99.90;;;;;;6363683;22;20519;-66
2023/04/13 00:34:50;;;;;;;3.95;2.83;;;7.30;99.90;;;;;;6335560;22;20017;-66
2023/04/13 00:37:17;;;;;;;4.05;2.55;;;7.30;99.90;;;;;;6363870;22;20022;-66
2023/04/13 00:39:45;;;;;;;5.80;2.70;;;7.30;99.90;;;;;;6363978;22;20049;-66
2023/04/13 00:42:11;;;;;;;3.63;2.83;;;7.30;99.90;;;;;;6363895;22;20434;-66
2023/04/13 00:44:37;;;;;;;3.60;2.40;;;7.20;99.90;;;;;;6363469;22;20029;-67
2023/04/13 00:47:04;;;;;;;4.13;2.40;;;7.20;99.90;;;;;;6335433;22;20022;-67
2023/04/13 00:49:32;;;;;;;3.92;2.17;;;7.20;99.90;;;;;;6363436;22;20026;-67
2023/04/13 00:52:00;;;;;;;5.00;2.42;;;7.10;99.90;;;;;;6363852;22;20025;-67
2023/04/13 00:54:28;;;;;;;3.53;2.60;;;7.00;99.90;;;;;;6363476;22;20687;-66
2023/04/13 00:56:56;;;;;;;4.47;2.55;;;7.00;99.90;;;;;;6335136;22;20014;-65
2023/04/13 00:59:22;;;;;;;2.85;2.38;;;6.90;99.90;;;;;;6335242;22;20037;-65
2023/04/13 01:01:55;;;;;;;5.72;2.60;;;6.90;99.90;;;;;;6309529;22;20095;-65
2023/04/13 01:04:23;;;;;;;2.55;2.08;;;6.90;99.90;;;;;;6335343;22;20083;-65
2023/04/13 01:07:43;;;;;;;2.30;2.05;;;6.80;99.90;;;;;;6363621;22;20099;-66
2023/04/13 01:10:25;;;;;;;3.60;2.20;;;6.80;99.90;;;;;;6210332;23;20590;-66
2023/04/13 01:13:18;;;;;;;4.40;2.40;;;6.70;99.90;;;;;;6354626;22;20020;-65
2023/04/13 01:15:55;;;;;;;4.03;2.22;;;6.70;99.90;;;;;;6363721;22;20052;-65
2023/04/13 01:18:23;;;;;;;5.65;2.40;;;6.70;99.90;;;;;;6335165;22;20076;-65
2023/04/13 01:20:51;;;;;;;5.22;2.25;;;6.80;99.90;;;;;;6363213;22;20019;-65
2023/04/13 01:23:47;;;;;;;4.50;1.98;;;6.70;99.90;;;;;;6363280;22;20022;-65
2023/04/13 01:26:13;;;;;;;3.97;1.75;;;6.60;99.90;;;;;;6351881;22;20075;-65
2023/04/13 01:28:39;;;;;;;2.92;2.38;;;6.60;99.90;;;;;;6362793;22;20014;-64
2023/04/13 01:31:10;;;;;;;3.25;2.30;;;6.60;99.90;;;;;;6334900;22;20018;-64
2023/04/13 01:33:40;;;;;;;2.92;1.58;;;6.70;99.90;;;;;;6363497;22;20473;-64
2023/04/13 01:36:07;;;;;;;3.22;2.00;;;6.70;99.90;;;;;;6363433;22;20022;-65
2023/04/13 01:38:34;;;;;;;2.60;1.98;;;6.60;99.90;;;;;;6363294;22;20123;-65
2023/04/13 01:41:00;;;;;;;2.40;1.85;;;6.60;99.90;;;;;;6362751;22;20025;-65
2023/04/13 01:43:26;;;;;;;2.22;1.73;;;6.60;99.90;;;;;;6363156;22;20028;-64
2023/04/13 01:46:05;;;;;;;1.63;1.50;;;6.60;99.90;;;;;;6362673;22;20006;-64
2023/04/13 01:48:35;;;;;;;3.35;1.85;;;6.60;99.90;;;;;;6362799;22;20029;-64
2023/04/13 01:51:10;;;;;;;3.60;1.88;;;6.70;99.90;;;;;;6363371;22;20025;-64
2023/04/13 01:53:52;;;;;;;5.82;2.30;;;6.60;99.90;;;;;;6335227;22;20040;-65
2023/04/13 01:56:19;;;;;;;2.23;2.00;;;6.70;99.90;;;;;;6363102;22;20022;-65
2023/04/13 01:58:48;;;;;;;2.10;1.70;;;6.60;99.90;;;;;;6363515;22;20240;-65
2023/04/13 02:01:14;;;;;;;7.55;1.88;;;6.80;99.90;;;;;;6363140;22;20104;-65
2023/04/13 02:03:42;;;;;;;6.43;1.92;;;6.70;99.90;;;;;;6363587;22;20031;-65
2023/04/13 02:06:08;;;;;;;3.78;1.80;;;6.60;99.90;;;;;;6363314;22;20081;-65
2023/04/13 02:08:35;;;;;;;2.33;2.08;;;6.70;99.90;;;;;;6362849;22;20014;-65
2023/04/13 02:11:02;;;;;;;5.32;1.90;;;6.60;99.90;;;;;;6362795;22;20263;-65
2023/04/13 02:13:31;;;;;;;5.35;1.70;;;6.60;99.90;;;;;;6362962;22;20384;-66
2023/04/13 02:15:57;;;;;;;1.60;1.50;;;6.70;99.90;;;;;;6334405;22;20026;-65
2023/04/13 02:18:24;;;;;;;3.47;1.83;;;6.60;99.90;;;;;;6362716;22;20018;-66
2023/04/13 02:21:08;;;;;;;3.38;1.83;;;6.60;99.90;;;;;;6363086;22;20092;-65
2023/04/13 02:23:35;;;;;;;3.58;1.63;;;6.60;99.90;;;;;;6362533;22;20048;-65
2023/04/13 02:26:01;;;;;;;3.67;1.83;;;6.60;99.90;;;;;;6363148;22;20083;-66
2023/04/13 02:28:28;;;;;;;3.40;2.17;;;6.60;99.90;;;;;;6336575;22;20483;-66
2023/04/13 02:30:55;;;;;;;3.03;1.80;;;6.60;99.90;;;;;;6365297;22;20462;-66
2023/04/13 02:33:21;;;;;;;2.83;1.60;;;6.60;99.90;;;;;;6365377;22;20023;-66
2023/04/13 02:35:48;;;;;;;3.38;2.22;;;6.50;99.90;;;;;;6364630;22;20360;-66
2023/04/13 02:38:16;;;;;;;3.95;2.03;;;6.60;99.90;;;;;;6336702;22;20014;-66
2023/04/13 02:40:42;;;;;;;2.45;1.73;;;6.60;99.90;;;;;;6364648;22;20058;-65
2023/04/13 02:43:09;;;;;;;5.13;2.25;;;6.60;99.90;;;;;;6364947;22;20502;-66
2023/04/13 02:45:35;;;;;;;2.33;1.73;;;6.60;99.90;;;;;;6364744;22;20024;-65
2023/04/13 02:48:01;;;;;;;4.20;1.83;;;6.50;99.90;;;;;;6364251;22;20026;-66
2023/04/13 02:50:26;;;;;;;2.17;1.90;;;6.60;99.90;;;;;;6364825;22;20534;-65
2023/04/13 02:52:53;;;;;;;6.38;1.90;;;6.60;99.90;;;;;;6364292;22;20418;-66
2023/04/13 02:55:19;;;;;;;3.15;2.10;;;6.60;99.90;;;;;;6364524;22;20025;-65
2023/04/13 02:57:45;;;;;;;1.85;1.63;;;6.60;99.90;;;;;;6364390;22;20022;-66
2023/04/13 03:00:12;;;;;;;1.67;1.58;;;6.60;99.90;;;;;;6364832;22;20014;-66
2023/04/13 03:02:38;;;;;;;1.27;1.25;;;6.60;99.90;;;;;;6364606;22;20084;-66
2023/04/13 03:05:05;;;;;;;2.92;1.38;;;6.60;99.90;;;;;;6336306;22;20010;-66
2023/04/13 03:07:31;;;;;;;2.13;1.88;;;6.70;99.90;;;;;;6336357;22;20469;-66
2023/04/13 03:10:00;;;;;;;2.65;2.28;;;6.60;99.90;;;;;;6364662;22;20102;-67
2023/04/13 03:12:25;;;;;;;2.10;1.92;;;6.60;99.90;;;;;;6364627;22;20010;-66
2023/04/13 03:14:51;;;;;;;3.20;1.98;;;6.60;99.90;;;;;;6364291;22;20060;-66
2023/04/13 03:17:17;;;;;;;5.97;2.55;;;6.60;99.90;;;;;;6336036;22;20018;-66
2023/04/13 03:19:46;;;;;;;5.85;2.47;;;6.50;99.90;;;;;;6364853;22;20325;-66
2023/04/13 03:22:12;;;;;;;4.10;2.25;;;6.60;99.90;;;;;;6364367;22;20128;-65
2023/04/13 03:24:38;;;;;;;2.42;1.92;;;6.60;99.90;;;;;;6364894;22;20057;-66
2023/04/13 03:27:04;;;;;;;2.90;1.98;;;6.70;99.90;;;;;;6364669;22;20465;-65
2023/04/13 03:29:30;;;;;;;3.85;2.17;;;6.60;99.90;;;;;;6364605;22;20098;-65
2023/04/13 03:31:56;;;;;;;3.10;1.98;;;6.60;99.90;;;;;;6364527;22;20067;-66
2023/04/13 03:34:22;;;;;;;3.08;2.15;;;6.60;99.90;;;;;;6364053;22;20018;-66
2023/04/13 03:36:48;;;;;;;2.25;1.73;;;6.70;99.90;;;;;;6335365;22;20022;-66
2023/04/13 03:39:14;;;;;;;3.50;2.13;;;6.70;99.90;;;;;;6364509;22;20095;-65
2023/04/13 03:41:40;;;;;;;2.20;2.00;;;6.70;99.90;;;;;;6364301;22;20014;-65
2023/04/13 03:44:06;;;;;;;2.92;2.13;;;6.70;99.90;;;;;;6364208;22;20117;-65
2023/04/13 03:46:36;;;;;;;4.07;1.90;;;6.80;99.90;;;;;;6363822;22;20568;-65
2023/04/13 03:49:06;;;;;;;3.53;2.08;;;6.70;99.90;;;;;;6363616;22;20037;-65
2023/04/13 03:51:32;;;;;;;5.57;2.47;;;6.70;99.90;;;;;;6363947;22;20019;-65
2023/04/13 03:53:57;;;;;;;2.05;1.85;;;6.70;99.90;;;;;;6363757;22;20083;-65
2023/04/13 03:56:23;;;;;;;3.55;2.25;;;6.80;99.90;;;;;;6363559;22;20093;-65
2023/04/13 03:58:50;;;;;;;6.63;2.60;;;6.80;99.90;;;;;;6363662;22;20073;-65
2023/04/13 04:01:15;;;;;;;2.90;2.13;;;6.80;99.90;;;;;;6363863;22;20014;-65
2023/04/13 04:03:41;;;;;;;2.55;1.80;;;6.90;99.90;;;;;;6363876;22;20083;-65
2023/04/13 04:06:07;;;;;;;3.50;2.08;;;6.90;99.90;;;;;;6363237;22;20071;-64
2023/04/13 04:08:33;;;;;;;2.58;2.08;;;6.90;99.90;;;;;;6363769;22;20033;-65
2023/04/13 04:10:58;;;;;;;5.28;2.25;;;7.00;99.90;;;;;;6363747;22;20326;-65
2023/04/13 04:13:24;;;;;;;3.60;1.98;;;7.00;99.90;;;;;;6363716;22;20014;-65
2023/04/13 04:15:50;;;;;;;3.38;1.95;;;6.90;99.90;;;;;;6335078;22;20069;-65
2023/04/13 04:18:16;;;;;;;3.53;2.38;;;6.90;99.90;;;;;;6335057;22;20018;-65
2023/04/13 04:20:42;;;;;;;2.80;1.80;;;7.00;99.90;;;;;;6363462;22;20390;-64
2023/04/13 04:23:08;;;;;;;3.90;2.15;;;7.00;99.90;;;;;;6363141;22;20350;-64
2023/04/13 04:25:36;;;;;;;3.50;2.58;;;7.10;99.90;;;;;;6363740;22;20045;-65
2023/04/13 04:28:03;;;;;;;2.75;2.22;;;7.10;99.90;;;;;;6335466;22;20010;-65
2023/04/13 04:30:32;;;;;;;3.53;2.15;;;7.00;99.90;;;;;;6363661;22;20010;-65
2023/04/13 04:32:58;;;;;;;3.83;2.25;;;7.10;99.90;;;;;;6363376;22;20018;-65
2023/04/13 04:35:32;;;;;;;2.67;2.10;;;7.10;99.90;;;;;;6363106;22;20046;-65
2023/04/13 04:38:04;;;;;;;5.65;3.85;;;7.10;99.90;;;;;;6363277;22;20014;-65
2023/04/13 04:40:29;;;;;;;3.80;2.90;;;7.00;99.90;;;;;;6363333;22;20130;-64
2023/04/13 04:42:56;;;;;;;4.90;2.47;;;7.10;99.90;;;;;;6363509;22;20619;-65
2023/04/13 04:45:22;;;;;;;5.13;2.95;;;7.10;99.90;;;;;;6363504;22;20029;-65
2023/04/13 04:47:49;;;;;;;5.05;2.40;;;7.00;99.90;;;;;;6329678;22;20022;-65
2023/04/13 04:50:16;;;;;;;2.90;2.70;;;7.10;99.90;;;;;;6332245;22;20093;-65
2023/04/13 04:52:42;;;;;;;5.70;2.42;;;7.10;99.90;;;;;;6332613;22;20021;-65
2023/04/13 04:55:08;;;;;;;4.05;2.85;;;7.10;99.90;;;;;;6331569;22;20042;-65
2023/04/13 04:57:35;;;;;;;3.35;2.50;;;7.00;99.90;;;;;;6332050;22;20015;-66
2023/04/13 05:00:14;;;;;;;5.40;3.35;;;7.00;99.90;;;;;;6329587;22;20054;-64
2023/04/13 05:02:40;;;;;;;2.70;2.50;;;7.00;99.90;;;;;;6332292;22;20023;-65
2023/04/13 05:05:06;;;;;;;3.30;2.17;;;7.00;99.90;;;;;;6330140;22;20026;-65
2023/04/13 05:07:32;;;;;;;4.22;2.75;;;6.90;99.90;;;;;;6332351;22;20019;-65
2023/04/13 05:09:57;;;;;;;4.32;2.63;;;6.90;99.90;;;;;;6331973;22;20054;-65
2023/04/13 05:12:23;;;;;;;3.15;2.85;;;6.90;99.90;;;;;;6332178;22;20015;-65
2023/04/13 05:14:49;;;;;;;2.40;2.20;;;6.90;99.90;;;;;;6332322;22;20019;-65
2023/04/13 05:17:18;;;;;;;3.53;2.35;;;6.90;99.90;;;;;;6331818;22;20019;-65
2023/04/13 05:19:45;;;;;;;5.13;2.28;;;7.00;99.90;;;;;;6329512;22;20023;-65
2023/04/13 05:22:12;;;;;;;4.70;2.72;;;7.00;99.90;;;;;;6331430;22;20645;-65
2023/04/13 05:24:38;;;;;;;4.95;3.15;;;7.10;99.90;;;;;;6331253;22;20307;-64
2023/04/13 05:27:04;;;;;;;4.93;2.67;;;7.10;99.90;;;;;;6331367;22;20011;-65
2023/04/13 05:29:34;;;;;;;8.20;3.10;;;7.10;99.90;;;;;;6331826;22;20026;-65
2023/04/13 05:32:00;;;;;;;6.63;2.83;;;7.10;99.90;;;;;;6329446;22;20422;-66
2023/04/13 05:34:26;;;;;;;4.15;2.85;;;7.30;99.90;;;;;;6331378;22;20023;-66
2023/04/13 05:36:52;;;;;;;3.13;2.40;;;7.40;99.90;;;;;;6329873;22;20034;-66
2023/04/13 05:39:19;;;;;;;4.18;3.03;;;7.50;99.90;;;;;;6332759;22;20026;-66
2023/04/13 05:41:45;;;;;;;8.57;3.63;;;7.40;99.90;;;;;;6330433;22;20015;-66
2023/04/13 05:44:11;;;;;;;5.63;3.60;;;7.50;99.90;;;;;;6332425;22;20042;-65
2023/04/13 05:46:36;;;;;;;5.03;3.40;;;7.50;99.90;;;;;;6332344;22;20026;-65
2023/04/13 05:49:02;;;;;;;8.57;3.08;;;7.50;99.90;;;;;;6354956;22;20405;-65
2023/04/13 05:51:33;;;;;;;7.38;3.72;;;7.50;99.90;;;;;;6363546;22;20290;-65
2023/04/13 05:53:58;;;;;;;6.00;4.03;;;7.70;99.90;;;;;;6363771;22;20034;-64
2023/04/13 05:56:24;;;;;;;7.18;4.18;;;7.70;99.90;;;;;;6363313;22;20356;-65
2023/04/13 05:58:51;;;;;;;6.22;4.00;;;7.80;99.90;;;;;;6335960;22;20261;-65
2023/04/13 06:01:18;;;;;;;8.57;4.13;;;7.90;99.90;;;;;;6365774;22;20025;-65
2023/04/13 06:03:45;;;;;;;6.70;4.07;;;7.70;99.90;;;;;;6311290;22;20171;-65
2023/04/13 06:06:11;;;;;;;7.18;4.65;;;7.70;99.90;;;;;;6366019;22;20115;-66
2023/04/13 06:08:38;;;;;;;5.40;3.85;;;7.70;99.90;;;;;;6365537;22;20479;-66
2023/04/13 06:11:05;;;;;;;5.97;3.67;;;7.60;99.90;;;;;;6365496;22;20079;-66
2023/04/13 06:13:31;;;;;;;6.47;4.22;;;7.60;99.90;;;;;;6366083;22;20029;-65
2023/04/13 06:15:57;;;;;;;8.50;3.75;;;7.50;99.90;;;;;;6337293;22;20103;-65
2023/04/13 06:18:26;;;;;;;13.38;4.57;;;7.60;99.90;;;;;;6365851;22;20075;-66
2023/04/13 06:20:56;;;;;;;8.45;4.00;;;7.60;99.90;;;;;;6365306;22;20033;-65
2023/04/13 06:23:24;;;;;;;9.57;3.92;;;7.60;99.90;;;;;;6365354;22;20022;-65
2023/04/13 06:25:50;;;;;;;12.32;4.22;;;7.60;99.90;;;;;;6365394;22;20091;-65
2023/04/13 06:28:16;;;;;;;5.55;3.67;;;7.60;99.90;;;;;;6365622;22;20071;-65
2023/04/13 06:30:42;;;;;;;6.78;4.03;;;7.70;99.90;;;;;;6337612;22;20022;-65
2023/04/13 06:33:08;;;;;;;8.10;3.83;;;7.70;99.90;;;;;;6365232;22;20018;-65
2023/04/13 06:35:35;;;;;;;8.70;3.72;;;7.80;99.90;;;;;;6365972;22;20015;-65
2023/04/13 06:38:01;;;;;;;7.57;3.97;;;7.80;99.90;;;;;;6337327;22;20337;-65
2023/04/13 06:40:30;;;;;;;9.10;4.85;;;7.90;99.90;;;;;;6365926;22;20063;-65
2023/04/13 06:42:57;;;;;;;15.30;5.57;;;7.90;99.90;;;;;;6365522;22;20093;-65
2023/04/13 06:45:23;;;;;;;5.07;3.58;;;8.00;99.90;;;;;;6365216;22;20060;-66
2023/04/13 06:47:51;;;;;;;6.68;3.88;;;8.00;99.90;;;;;;6365178;22;20018;-66
2023/04/13 06:50:16;;;;;;;5.63;4.20;;;8.10;99.90;;;;;;6365408;22;20020;-66
2023/04/13 06:52:44;;;;;;;7.07;4.10;;;8.10;99.90;;;;;;6365219;22;20885;-66
2023/04/13 06:55:10;;;;;;;10.05;4.13;;;8.20;99.90;;;;;;6365288;22;20117;-66
2023/04/13 06:57:35;;;;;;;6.00;3.85;;;8.20;99.90;;;;;;6365176;22;20639;-66
2023/04/13 07:00:01;;;;;;;6.95;3.47;;;8.20;99.90;;;;;;6337370;22;20071;-66
2023/04/13 07:02:27;;;;;;;10.30;3.92;;;8.20;99.90;;;;;;6365342;22;20022;-66
2023/04/13 07:04:53;;;;;;;8.65;4.18;;;8.30;99.90;;;;;;6365796;22;20029;-66
2023/04/13 07:07:19;;;;;;;8.27;3.95;;;8.30;99.90;;;;;;6365527;22;20460;-66
2023/04/13 07:09:45;;;;;;;9.80;3.97;;;8.30;99.90;;;;;;6365384;22;20341;-66
2023/04/13 07:12:11;;;;;;;5.68;3.60;;;8.40;99.90;;;;;;6336526;22;20490;-66
2023/04/13 07:14:40;;;;;;;9.27;3.40;;;8.40;99.90;;;;;;6365040;22;20026;-66
2023/04/13 07:17:06;;;;;;;6.68;3.30;;;8.40;99.90;;;;;;6365333;22;20099;-66
2023/04/13 07:19:34;;;;;;;7.82;4.10;;;8.40;99.90;;;;;;6336610;22;20026;-66
2023/04/13 07:22:00;;;;;;;6.20;3.15;;;8.40;99.90;;;;;;6365181;22;20015;-66
2023/04/13 07:24:27;;;;;;;4.80;3.00;;;8.40;99.90;;;;;;6365080;22;20117;-66
2023/04/13 07:26:55;;;;;;;9.25;3.28;;;8.40;99.90;;;;;;6364997;22;20018;-67
2023/04/13 07:29:21;;;;;;;5.22;3.30;;;8.50;99.90;;;;;;6364669;22;20033;-66
2023/04/13 07:31:47;;;;;;;7.30;3.67;;;8.50;99.90;;;;;;6336601;22;20022;-66
2023/04/13 07:34:13;;;;;;;10.20;4.43;;;8.30;99.90;;;;;;6365071;22;20057;-66
2023/04/13 07:36:41;;;;;;;8.15;3.30;;;8.40;99.90;;;;;;6365006;22;20029;-66
2023/04/13 07:39:08;;;;;;;4.75;3.17;;;8.40;99.90;;;;;;6364879;22;20010;-66
2023/04/13 07:41:35;;;;;;;4.75;3.15;;;8.40;99.90;;;;;;6364952;22;20344;-66
2023/04/13 07:44:04;;;;;;;5.15;2.95;;;8.50;99.90;;;;;;6364569;22;20019;-66
2023/04/13 07:46:31;;;;;;;6.75;2.65;;;8.50;99.90;;;;;;6364966;22;20018;-67
2023/04/13 07:48:57;;;;;;;5.75;2.80;;;8.50;99.90;;;;;;6364384;22;20022;-67
2023/04/13 07:51:22;;;;;;;4.93;2.60;;;8.50;99.90;;;;;;6336450;22;20022;-66
2023/04/13 07:53:51;;;;;;;4.05;2.33;;;8.50;99.90;;;;;;6364917;22;20019;-67
2023/04/13 07:56:17;;;;;;;5.43;2.38;;;8.60;99.90;;;;;;6336270;22;20025;-66
2023/04/13 07:58:43;;;;;;;9.75;3.03;;;8.60;99.90;;;;;;6336094;22;20476;-67
2023/04/13 08:01:09;;;;;;;2.30;2.10;;;8.60;99.90;;;;;;6336229;22;20026;-66
2023/04/13 08:03:35;;;;;;;6.90;2.70;;;8.60;99.90;;;;;;6336186;22;20101;-67
2023/04/13 08:06:08;;;;;;;5.28;2.58;;;8.70;99.90;;;;;;6364773;22;20686;-67
2023/04/13 08:08:33;;;;;;;3.55;2.47;;;8.60;99.90;;;;;;6336845;22;20021;-67
2023/04/13 08:11:00;;;;;;;5.88;2.65;;;8.80;99.90;;;;;;6364163;22;20014;-67
2023/04/13 08:13:27;;;;;;;4.07;2.42;;;8.80;99.90;;;;;;6336153;22;20022;-66
2023/04/13 08:15:56;;;;;;;7.43;2.50;;;8.90;99.90;;;;;;6335875;22;20018;-65
2023/04/13 08:18:25;;;;;;;5.45;3.08;;;8.90;99.90;;;;;;6336458;22;20063;-66
2023/04/13 08:20:51;;;;;;;4.90;2.70;;;9.00;99.90;;;;;;6336453;22;20053;-65
2023/04/13 08:23:17;;;;;;;4.03;2.30;;;9.00;99.90;;;;;;6335465;22;20079;-66
2023/04/13 08:25:44;;;;;;;7.97;2.65;;;9.10;99.90;;;;;;6364332;22;20018;-66
2023/04/13 08:28:10;;;;;;;2.60;2.40;;;9.20;99.90;;;;;;6364826;22;20758;-66
2023/04/13 08:30:36;;;;;;;5.07;2.30;;;9.30;99.90;;;;;;6364456;22;20014;-66
2023/04/13 08:33:02;;;;;;;2.78;2.35;;;9.20;99.90;;;;;;6336093;22;20514;-66
2023/04/13 08:35:28;;;;;;;6.00;2.90;;;9.20;99.90;;;;;;6336362;22;20022;-66
2023/04/13 08:37:54;;;;;;;5.53;2.75;;;9.10;99.90;;;;;;6364455;22;20334;-67
2023/04/13 08:40:21;;;;;;;4.97;2.88;;;9.00;99.90;;;;;;6336056;22;20783;-67
2023/04/13 08:42:53;;;;;;;3.83;2.58;;;8.90;99.90;;;;;;6363969;22;20021;-66
2023/04/13 08:45:19;;;;;;;6.10;2.83;;;9.00;99.90;;;;;;6309805;22;20036;-66
2023/04/13 08:47:45;;;;;;;5.30;4.05;;;9.00;99.90;;;;;;6363764;22;20029;-66
2023/04/13 08:50:11;;;;;;;7.50;3.28;;;9.00;99.90;;;;;;6364007;22;20022;-66
2023/04/13 08:52:38;;;;;;;7.32;3.58;;;9.00;99.90;;;;;;6363914;22;20022;-64
2023/04/13 08:55:04;;;;;;;7.32;3.42;;;9.00;99.90;;;;;;6364344;22;20282;-66
2023/04/13 08:57:31;;;;;;;4.60;3.17;;;9.00;99.90;;;;;;6363631;22;20314;-66
2023/04/13 08:59:57;;;;;;;5.35;3.05;;;8.90;99.90;;;;;;6364202;22;20025;-66
2023/04/13 09:02:30;;;;;;;8.15;2.70;;;8.90;99.90;;;;;;6364405;22;20019;-66
2023/04/13 09:04:59;;;;;;;6.80;2.70;;;8.80;99.90;;;;;;6309870;22;20022;-66
2023/04/13 09:07:29;;;;;;;4.82;2.58;;;8.80;99.90;;;;;;6364530;22;20015;-66
2023/04/13 09:09:58;;;;;;;6.40;2.63;;;8.80;99.90;;;;;;6364977;22;20336;-65
2023/04/13 09:12:32;;;;;;;4.88;2.63;;;8.80;99.90;;;;;;6335799;22;20053;-66
2023/04/13 09:14:58;;;;;;;3.40;2.65;;;8.80;99.90;;;;;;6363799;22;20041;-64
2023/04/13 09:17:24;;;;;;;2.75;1.60;;;8.70;99.90;;;;;;6364016;22;20093;-66
2023/04/13 09:20:11;;;;;;;2.53;1.27;;;8.60;99.90;;;;;;6364120;22;20015;-64
2023/04/13 09:22:36;;;;;;;3.28;0.98;;;8.40;99.90;;;;;;6364483;22;20033;-64
2023/04/13 09:25:06;;;;;;;1.85;1.15;;;8.30;99.90;;;;;;6336229;22;20454;-65
2023/04/13 09:27:34;;;;;;;1.00;1.00;;;8.10;99.90;;;;;;6365334;22;20014;-64
2023/04/13 09:30:01;;;;;;;1.30;1.20;;;7.90;99.90;;;;;;6365178;22;20089;-65
2023/04/13 09:32:27;;;;;;;1.55;1.45;;;7.90;99.90;;;;;;6335905;22;20022;-66
2023/04/13 09:35:03;;;;;;;3.40;2.22;;;8.00;99.90;;;;;;6363544;22;20107;-66
2023/04/13 09:37:32;;;;;;;1.25;1.25;;;8.10;99.90;;;;;;6363644;22;20075;-65
2023/04/13 09:40:11;;;;;;;1.27;1.10;;;8.10;99.90;;;;;;6363728;22;20379;-66
2023/04/13 09:42:53;;;;;;;1.40;1.30;;;8.20;99.90;;;;;;6335527;22;20520;-66
2023/04/13 09:45:19;;;;;;;1.35;1.20;;;8.30;99.90;;;;;;6363849;22;20032;-66
2023/04/13 09:47:46;;;;;;;4.10;1.40;;;8.50;99.90;;;;;;6363705;22;20299;-66
2023/04/13 09:50:21;;;;;;;2.60;1.10;;;8.50;99.90;;;;;;6335651;22;20022;-66
2023/04/13 09:53:01;;;;;;;1.58;1.20;;;8.60;99.90;;;;;;6335676;22;20022;-65
2023/04/13 09:55:30;;;;;;;3.25;1.50;;;8.60;99.90;;;;;;6309188;22;20026;-66
2023/04/13 09:57:56;;;;;;;5.30;1.75;;;8.60;99.90;;;;;;6363469;22;20387;-65
2023/04/13 10:00:22;;;;;;;1.70;1.08;;;8.50;99.90;;;;;;6335777;22;20058;-66
2023/04/13 10:02:52;;;;;;;2.13;1.20;;;8.50;99.90;;;;;;6364357;22;20099;-66
2023/04/13 10:05:18;;;;;;;3.80;1.50;;;8.60;99.90;;;;;;6364211;22;20389;-66
2023/04/13 10:07:45;;;;;;;1.23;1.13;;;8.70;99.90;;;;;;6363809;22;20109;-66
2023/04/13 10:10:12;;;;;;;2.45;1.35;;;8.80;99.90;;;;;;6363776;22;20378;-66
2023/04/13 10:12:42;;;;;;;1.90;1.38;;;8.90;99.90;;;;;;6335781;22;20040;-66
2023/04/13 10:15:42;;;;;;;1.88;1.77;;;9.00;99.90;;;;;;6363950;22;20105;-66
2023/04/13 10:18:33;;;;;;;2.05;1.80;;;9.20;99.90;;;;;;6363914;22;20106;-65
2023/04/13 10:21:00;;;;;;;3.95;1.95;;;9.30;99.90;;;;;;6363934;22;20333;-65
2023/04/13 10:23:28;;;;;;;5.60;2.42;;;9.40;99.90;;;;;;6363597;22;20025;-65
2023/04/13 10:25:56;;;;;;;2.38;1.73;;;9.40;99.90;;;;;;6363844;22;20025;-65
2023/04/13 10:28:23;;;;;;;9.27;2.50;;;9.50;99.90;;;;;;6335804;22;20089;-65
2023/04/13 10:30:53;;;;;;;8.05;2.15;;;9.50;99.90;;;;;;6363719;22;20010;-65
2023/04/13 10:33:19;;;;;;;8.98;3.22;;;9.60;99.90;;;;;;6335419;22;20079;-65
2023/04/13 10:36:00;;;;;;;6.07;2.38;;;9.50;99.90;;;;;;6335462;22;20045;-64
2023/04/13 10:38:26;;;;;;;9.20;2.17;;;9.60;99.90;;;;;;6363980;22;20018;-65
2023/04/13 10:40:52;;;;;;;10.07;2.45;;;9.60;99.90;;;;;;6363383;22;20046;-67
2023/04/13 10:43:29;;;;;;;7.38;2.53;;;9.70;99.90;;;;;;6363081;22;20026;-67
2023/04/13 10:46:08;;;;;;;5.13;2.00;;;9.80;99.90;;;;;;6363452;22;20094;-67
2023/04/13 10:48:34;;;;;;;5.45;1.95;;;9.90;99.90;;;;;;6365185;22;20041;-67
2023/04/13 10:51:00;;;;;;;10.25;2.70;;;10.00;99.90;;;;;;6365414;22;20310;-67
2023/04/13 10:53:29;;;;;;;5.35;1.88;;;10.10;99.90;;;;;;6364902;22;20026;-67
2023/04/13 10:55:56;;;;;;;6.15;2.63;;;10.10;99.90;;;;;;6337005;22;20114;-69
2023/04/13 10:58:22;;;;;;;3.72;2.13;;;10.00;99.90;;;;;;6365099;22;20163;-70
2023/04/13 11:00:50;;;;;;;5.97;1.77;;;10.00;99.90;;;;;;6365957;22;20053;-69
2023/04/13 11:03:17;;;;;;;7.07;2.38;;;10.00;99.90;;;;;;6365657;22;20369;-70
2023/04/13 11:05:45;;;;;;;10.68;2.55;;;10.10;99.90;;;;;;6337466;22;20010;-69
2023/04/13 11:08:19;;;;;;;8.80;1.98;;;10.10;99.90;;;;;;6365544;22;20580;-70
2023/04/13 11:10:55;;;;;;;10.45;2.22;;;10.20;99.90;;;;;;6365563;22;20061;-70
2023/04/13 11:13:25;;;;;;;11.43;2.13;;;10.20;99.90;;;;;;6365884;22;20022;-70
2023/04/13 11:16:05;;;;;;;9.32;2.47;;;10.20;99.90;;;;;;6365910;22;20080;-70
2023/04/13 11:18:31;;;;;;;8.00;2.47;;;10.30;99.90;;;;;;6337647;22;20022;-70
2023/04/13 11:20:57;;;;;;;10.98;2.22;;;10.30;99.90;;;;;;6365672;22;20299;-70
2023/04/13 11:23:23;;;;;;;9.13;1.83;;;10.40;99.90;;;;;;6365753;22;20418;-70
2023/04/13 11:26:00;;;;;;;8.40;2.20;;;10.30;99.90;;;;;;6365858;22;20484;-70
2023/04/13 11:28:56;;;;;;;5.50;2.13;;;10.40;99.90;;;;;;6365943;22;20134;-70
2023/04/13 11:31:36;;;;;;;10.25;2.67;;;10.40;99.90;;;;;;6318141;22;20059;-70
2023/04/13 11:34:04;;;;;;;4.25;1.80;;;10.30;99.90;;;;;;6365842;22;20018;-70
2023/04/13 11:36:31;;;;;;;9.70;2.50;;;10.40;99.90;;;;;;6365795;22;20010;-70
2023/04/13 11:38:58;;;;;;;10.05;2.50;;;10.40;99.90;;;;;;6365494;22;20767;-70
2023/04/13 11:41:27;;;;;;;6.97;2.10;;;10.40;99.90;;;;;;6365582;22;20063;-70
2023/04/13 11:43:53;;;;;;;9.10;1.98;;;10.50;99.90;;;;;;6365117;22;20025;-70
2023/04/13 11:46:25;;;;;;;12.35;2.33;;;10.50;99.90;;;;;;6310741;22;20113;-70
2023/04/13 11:48:54;;;;;;;8.43;2.17;;;10.60;99.90;;;;;;6331823;22;20050;-70
2023/04/13 11:51:20;;;;;;;7.07;2.17;;;10.70;99.90;;;;;;6333223;22;20438;-70
2023/04/13 11:53:46;;;;;;;6.47;2.00;;;10.80;99.90;;;;;;6333831;22;20023;-70
2023/04/13 11:56:13;;;;;;;14.75;2.97;;;10.70;99.90;;;;;;6333837;22;20106;-70
2023/04/13 11:58:39;;;;;;;20.25;2.50;;;10.70;99.90;;;;;;6333390;22;20469;-71
2023/04/13 12:01:08;;;;;;;10.95;2.67;;;10.60;99.90;;;;;;6331759;22;20019;-71
2023/04/13 12:03:35;;;;;;;10.52;2.17;;;10.50;99.90;;;;;;6333965;22;20015;-71
2023/04/13 12:06:01;;;;;;;11.25;2.15;;;10.50;99.90;;;;;;6333489;22;20057;-71
2023/04/13 12:08:28;;;;;;;4.97;1.73;;;10.50;99.90;;;;;;6333692;22;20532;-71
2023/04/13 12:11:02;;;;;;;9.38;3.08;;;10.40;99.90;;;;;;6331838;22;20099;-71
2023/04/13 12:13:41;;;;;;;9.88;2.05;;;10.40;99.90;;;;;;6333959;22;20069;-71
2023/04/13 12:16:07;;;;;;;7.57;2.22;;;10.30;99.90;;;;;;6332027;22;20023;-70
2023/04/13 12:18:43;;;;;;;6.30;1.83;;;10.30;99.90;;;;;;6333818;22;20094;-71
2023/04/13 12:21:15;;;;;;;9.25;2.05;;;10.30;99.90;;;;;;6333311;22;20022;-71
2023/04/13 12:23:54;;;;;;;10.30;2.05;;;10.20;99.90;;;;;;6333652;22;20750;-71
2023/04/13 12:26:23;;;;;;;7.85;1.88;;;10.10;99.90;;;;;;6333255;22;20057;-66
2023/04/13 12:28:55;;;;;;;11.77;2.15;;;10.20;99.90;;;;;;6333271;22;20082;-70
2023/04/13 12:31:21;;;;;;;7.47;1.88;;;10.30;99.90;;;;;;6331911;22;20022;-70
2023/04/13 12:33:46;;;;;;;7.85;2.15;;;10.30;99.90;;;;;;6333059;22;20046;-70
2023/04/13 12:36:12;;;;;;;4.82;1.80;;;10.20;99.90;;;;;;6333702;22;20034;-70
2023/04/13 12:38:38;;;;;;;8.52;2.28;;;10.20;99.90;;;;;;6331742;22;20410;-70
2023/04/13 12:41:08;;;;;;;7.28;2.05;;;10.20;99.90;;;;;;6333411;22;20015;-70
2023/04/13 12:43:33;;;;;;;8.43;1.80;;;10.20;99.90;;;;;;6333331;22;20094;-70
2023/04/13 12:45:59;;;;;;;9.13;2.08;;;10.10;99.90;;;;;;6332782;22;20069;-70
2023/04/13 12:48:25;;;;;;;8.73;1.70;;;10.20;99.90;;;;;;6330553;22;20040;-70
2023/04/13 12:50:52;;;;;;;6.45;2.05;;;10.30;99.90;;;;;;6330964;22;20019;-70
2023/04/13 12:53:17;;;;;;;8.75;2.50;;;10.40;99.90;;;;;;6330847;22;20026;-70
2023/04/13 12:55:43;;;;;;;8.65;2.20;;;10.40;99.90;;;;;;6333050;22;20011;-70
2023/04/13 12:58:10;;;;;;;9.05;2.28;;;10.40;99.90;;;;;;6333001;22;20015;-70
2023/04/13 13:00:35;;;;;;;9.45;2.08;;;10.40;99.90;;;;;;6333155;22;20026;-70